ホワイトホース の空港の天気 - METARとTAF

ホワイトホース国際空港 ( CYXY / YXY ) - カナダ ユーコン準州ホワイトホース
飛行場実況気象(Metar)
観測時間05/26 01:00 PDT (05/26 08:00 UTC)
風向・風速北 4m/s
視程10km以上
天気現象
全天の4割程度の雲 雲底高度 2190m
全天の8割程度の雲 雲底高度 6400m
気温7℃
湿度39%
気圧1013.7hPa
METARCYXY 260800Z VRB07KT 15SM SCT072 BKN210 07/M06 A2986 RMK AC4CI2 SLP137
過去の天気等 Google飛行場航空写真 Wunderground天気予報

過去48時間のMETAR

飛行場予報(TAF)
発表時間: 5/25 22:38 PDT (5/26 05:38 UTC)
予報対象時間: 25日23時 PDT ~ 26日23時 PDT
風向・風速南西 4m/s
視程10km以上
少しの雲 雲底高度 2130m
全天の4割程度の雲 雲底高度 3050m
25日23時 PDT ~ 26日1時 PDT に一時的に
全天の8割程度の雲 雲底高度 3050m
26日3時 PDT ~ 26日5時 PDT に徐々に
風向・風速不定 2m/s
26日10時 PDT から
風向・風速南 4m/s
視程10km以上
全天の8割程度の雲 雲底高度 2130m
26日22時 PDT から
風向・風速南 4m/s
視程10km以上
全天の8割程度の雲 雲底高度 2740m
全天の8割程度の雲 雲底高度 3960m
TAF CYXY 260538Z 2606/2706 22007KT P6SM FEW070 SCT100
TEMPO 2606/2608 BKN100
BECMG 2610/2612 VRB03KT
FM261700 17008KT P6SM BKN070
FM270500 17008KT P6SM BKN090 BKN130 RMK NXT FCST BY 261200Z